• Join FlightAware (Why Join?)
  • Login
  • US Flag 
07:58AM EDT


 

Airport Tracker/Info


-or-


 

Live Flight TrackerFlight Track Log ✈ SWA557 ✈ 31-Aug-2012 ✈ KBNA - KMCO

Flight Track Log - Related Links

Times and Time Zones

All times are in EDT time to prevent confusion due to time zone crossing. See the SWA557 flight status page for this flight to view local times or setup timezone preferences in your user account.

Time Position Orientation Groundspeed Altitude Reporting Facility
EDT Latitude Longitude Course Direction KTS MPH feet Rate Location/Type
09:55AM 36.1000 -86.6833 180° South 157 181 1,400  Level Nashville TRACON
09:56AM 36.0500 -86.6833 169° South 197 227 3,900 2,400 Climbing Nashville TRACON
09:57AM 35.9833 -86.6667 158° South 237 273 6,700 2,580 Climbing Nashville TRACON
09:58AM 35.9489 -86.6494 155° Southeast 254 292 7,800 2,820 Climbing Memphis Center
09:59AM 35.8789 -86.6089 155° Southeast 270 311 10,700 2,340 Climbing Memphis Center
10:00AM 35.8003 -86.5639 156° South 297 342 12,500 2,100 Climbing Memphis Center
10:01AM 35.7153 -86.5167 153° Southeast 325 374 14,900 2,220 Climbing Memphis Center
10:02AM 35.6281 -86.4619 141° Southeast 339 390 17,000 1,740 Climbing Memphis Center
10:03AM 35.5592 -86.3939 138° Southeast 352 405 18,400 1,620 Climbing Memphis Center
10:04AM 35.4792 -86.3058 139° Southeast 377 434 20,300 2,040 Climbing Memphis Center
10:04AM 35.4497 -86.2744 139° Southeast 378 435 21,000 1,680 Climbing Atlanta Center
10:05AM 35.3678 -86.1858 140° Southeast 404 465 22,500 1,680 Climbing Atlanta Center
10:06AM 35.2797 -86.0969 148° Southeast 404 465 24,400 1,500 Climbing Atlanta Center
10:07AM 35.1850 -86.0236 153° Southeast 404 465 25,500 1,020 Climbing Atlanta Center
10:08AM 35.0897 -85.9653 154° Southeast 410 472 26,500 1,020 Climbing Atlanta Center
10:09AM 34.9781 -85.8994 151° Southeast 428 493 27,600 1,140 Climbing Atlanta Center
10:10AM 34.8728 -85.8286 156° South 434 499 28,800 1,200 Climbing Atlanta Center
10:11AM 34.7589 -85.7656 152° Southeast 448 516 30,100 1,200 Climbing Atlanta Center
10:12AM 34.6472 -85.6925 151° Southeast 448 516 31,300 1,080 Climbing Atlanta Center
10:13AM 34.5375 -85.6172 152° Southeast 448 516 32,300 900 Climbing Atlanta Center
10:14AM 34.4278 -85.5472 152° Southeast 448 516 33,100 900 Climbing Atlanta Center
10:15AM 34.3097 -85.4697 152° Southeast 442 509 34,100 900 Climbing Atlanta Center
10:16AM 34.2000 -85.4000 152° Southeast 442 509 35,000 420 Climbing Atlanta Center
10:17AM 34.0922 -85.3306 152° Southeast 442 509 35,000  Level Atlanta Center
10:18AM 33.9803 -85.2589 153° Southeast 448 516 35,000  Level Atlanta Center
10:19AM 33.8683 -85.1897 151° Southeast 448 516 35,000  Level Atlanta Center
10:20AM 33.7561 -85.1156 153° Southeast 448 516 35,000  Level Atlanta Center
10:21AM 33.6419 -85.0444 152° Southeast 453 521 35,000  Level Atlanta Center
10:22AM 33.5256 -84.9708 152° Southeast 460 529 35,000  Level Atlanta Center
10:23AM 33.4156 -84.9000 152° Southeast 460 529 35,000  Level Atlanta Center
10:24AM 33.3011 -84.8267 152° Southeast 460 529 35,000  Level Atlanta Center
10:25AM 33.1972 -84.7611 154° Southeast 460 529 35,000  Level Atlanta Center
10:26AM 33.0828 -84.6933 151° Southeast 460 529 35,000  Level Atlanta Center
10:27AM 32.9683 -84.6181 153° Southeast 466 536 35,000  Level Atlanta Center
10:28AM 32.8539 -84.5483 152° Southeast 461 531 35,000  Level Atlanta Center
10:29AM 32.7289 -84.4683 153° Southeast 467 537 35,000  Level Atlanta Center
10:30AM 32.6164 -84.3989 152° Southeast 467 537 35,000  Level Atlanta Center
10:31AM 32.5019 -84.3269 152° Southeast 467 537 35,000  Level Atlanta Center
10:32AM 32.3872 -84.2553 152° Southeast 467 537 35,000  Level Atlanta Center
10:33AM 32.2706 -84.1814 153° Southeast 467 537 35,000  Level Atlanta Center
10:34AM 32.1556 -84.1125 152° Southeast 467 537 35,000  Level Atlanta Center
10:35AM 32.0408 -84.0414 151° Southeast 467 537 35,000  Level Atlanta Center
10:37AM 31.7703 -83.8653 146° Southeast 482 555 35,000  Level Jacksonville Center
10:38AM 31.6622 -83.7786 148° Southeast 476 548 35,000  Level Jacksonville Center
10:39AM 31.5564 -83.6997 145° Southeast 488 562 35,000  Level Jacksonville Center
10:40AM 31.4506 -83.6133 145° Southeast 488 562 35,000  Level Jacksonville Center
10:41AM 31.3422 -83.5250 146° Southeast 478 550 35,000  Level Jacksonville Center
10:42AM 31.2342 -83.4392 146° Southeast 478 550 35,000  Level Jacksonville Center
10:43AM 31.1258 -83.3536 146° Southeast 478 550 35,000  Level Jacksonville Center
10:44AM 31.0156 -83.2658 147° Southeast 478 550 35,000  Level Jacksonville Center
10:45AM 30.9050 -83.1808 145° Southeast 478 550 35,000 -1,260 Level Jacksonville Center
10:46AM 30.7906 -83.0861 147° Southeast 478 550 32,500 -4,080 Descending Jacksonville Center
10:47AM 30.6800 -83.0014 147° Southeast 473 544 27,000 -2,880 Descending Jacksonville Center
10:48AM 30.5714 -82.9192 145° Southeast 473 544 26,800 -540 Descending Jacksonville Center
10:49AM 30.4628 -82.8322 147° Southeast 473 544 26,000 -900 Descending Jacksonville Center
10:50AM 30.3500 -82.7458 146° Southeast 478 550 25,000 -540 Descending Jacksonville Center
10:51AM 30.2433 -82.6617 147° Southeast 478 550 25,000  Level Jacksonville Center
10:52AM 30.1325 -82.5781 147° Southeast 478 550 25,000  Level Jacksonville Center
10:53AM 30.0258 -82.4967 152° Southeast 473 544 25,000  Level Jacksonville Center
10:54AM 29.9086 -82.4253 155° Southeast 473 544 25,000 -180 Level Jacksonville Center
10:55AM 29.8019 -82.3683 157° South 473 544 24,700 -780 Descending Jacksonville Center
10:56AM 29.6847 -82.3117 158° South 468 539 23,500 -1,140 Descending Jacksonville Center
10:57AM 29.5675 -82.2575 158° South 457 526 22,500 -960 Descending Jacksonville Center
10:58AM 29.4547 -82.2058 157° South 452 520 21,600 -1,020 Descending Jacksonville Center
10:59AM 29.3394 -82.1494 158° South 452 520 20,500 -1,920 Descending Jacksonville Center
11:00AM 29.2306 -82.0978 157° South 445 512 17,800 -2,820 Descending Jacksonville Center
11:01AM 29.1217 -82.0439 158° South 438 504 14,900 -2,820 Descending Jacksonville Center
11:02AM 29.0150 -81.9950 157° South 426 490 12,200 -1,800 Descending Jacksonville Center
11:03AM 28.9208 -81.9483 139° Southeast 400 460 11,300 -780 Descending Jacksonville Center
11:04AM 28.8597 -81.8875 110° East 331 381 10,700 -1,020 Descending Jacksonville Center
11:05AM 28.8319 -81.8000 105° East 291 335 9,300 -1,020 Descending Jacksonville Center
11:06AM 28.8167 -81.7333 103° East 283 326 9,000 -180 Descending Orlando TRACON
11:07AM 28.8000 -81.6500 120° Southeast 250 288 9,000 -300 Level Orlando TRACON
11:08AM 28.7667 -81.5833 103° East 237 273 8,400 -900 Descending Orlando TRACON
11:09AM 28.7500 -81.5000 127° Southeast 232 267 7,300 -1,200 Descending Orlando TRACON
11:10AM 28.7167 -81.4500 120° Southeast 230 265 6,100 -1,200 Descending Orlando TRACON
11:11AM 28.6833 -81.3833 139° Southeast 224 258 4,800 -1,200 Descending Orlando TRACON
11:12AM 28.6333 -81.3333 139° Southeast 225 259 3,600 -1,140 Descending Orlando TRACON
11:13AM 28.5833 -81.2833 180° South 222 255 2,500 -960 Descending Orlando TRACON
11:14AM 28.5167 -81.2833 180° South 204 235 1,700 -900 Descending Orlando TRACON
11:15AM 28.4833 -81.2833 192° South 147 169 800 -900 Descending Orlando TRACON
11:23AM 28.4167 -81.3000 328° Northwest  Level FlightAware Approximate
11:24AM 28.5119 -81.3674 148° Southeast  Level Estimated
11:25AM 28.4167 -81.3000 328° Northwest  Level FlightAware Approximate
11:26AM 28.5119 -81.3674 328° Northwest  Level Estimated